createdAt,value
2022-09-17T00:00:32.895Z,0.00
2022-09-17T00:01:33.048Z,0.00
2022-09-17T00:02:32.843Z,0.00
2022-09-17T00:03:32.767Z,0.00
2022-09-17T00:04:32.722Z,0.00
2022-09-17T00:05:32.681Z,0.00
2022-09-17T00:06:32.661Z,0.00
2022-09-17T00:07:32.592Z,0.00
2022-09-17T00:08:32.551Z,0.00
2022-09-17T00:09:32.507Z,0.00
2022-09-17T00:10:32.462Z,0.00
2022-09-17T00:11:32.436Z,0.00
2022-09-17T00:12:32.373Z,0.00
2022-09-17T00:13:32.332Z,0.00
2022-09-17T00:14:32.298Z,0.00
2022-09-17T00:15:32.246Z,0.00
2022-09-17T00:16:32.296Z,0.00
2022-09-17T00:17:32.170Z,0.00
2022-09-17T00:18:32.115Z,0.00
2022-09-17T00:19:32.075Z,0.00
2022-09-17T00:20:32.029Z,0.00
2022-09-17T00:21:31.990Z,0.00
2022-09-17T00:22:31.940Z,0.00
2022-09-17T00:23:31.930Z,0.00
2022-09-17T00:24:31.869Z,0.00
2022-09-17T00:25:31.809Z,0.00
2022-09-17T00:26:31.766Z,0.00
2022-09-17T00:27:31.731Z,0.00
2022-09-17T00:28:31.676Z,0.00
2022-09-17T00:29:31.648Z,0.00
2022-09-17T00:30:31.597Z,0.00
2022-09-17T00:31:31.631Z,0.00
2022-09-17T00:32:31.504Z,0.00
2022-09-17T00:33:31.464Z,0.00
2022-09-17T00:34:31.437Z,0.00
2022-09-17T00:35:31.380Z,0.00
2022-09-17T00:36:31.331Z,0.00
2022-09-17T00:37:31.289Z,0.00
2022-09-17T00:38:31.247Z,0.00
2022-09-17T00:39:31.201Z,0.00
2022-09-17T00:40:31.220Z,0.00
2022-09-17T00:41:31.113Z,0.00
2022-09-17T00:42:31.071Z,0.00
2022-09-17T00:43:31.029Z,0.00
2022-09-17T00:44:30.984Z,0.00
2022-09-17T00:45:30.940Z,0.00
2022-09-17T00:46:30.984Z,0.00
2022-09-17T00:47:30.941Z,0.00
2022-09-17T00:48:30.810Z,0.00
2022-09-17T00:49:30.769Z,0.00
2022-09-17T00:50:30.733Z,0.00
2022-09-17T00:51:30.685Z,0.00
2022-09-17T00:52:30.638Z,0.00
2022-09-17T00:53:30.615Z,0.00
2022-09-17T00:54:30.548Z,0.00
2022-09-17T00:55:30.505Z,0.00
2022-09-17T00:56:30.463Z,0.00
2022-09-17T00:57:30.421Z,0.00
2022-09-17T00:58:30.379Z,0.00
2022-09-17T00:59:30.355Z,0.00
2022-09-17T01:00:30.322Z,0.00
2022-09-17T01:01:30.250Z,0.00
2022-09-17T01:02:30.263Z,0.00
2022-09-17T01:03:30.162Z,0.00
2022-09-17T01:04:30.115Z,0.00
2022-09-17T01:05:30.105Z,0.00
2022-09-17T01:06:30.031Z,0.00
2022-09-17T01:07:29.989Z,0.00
2022-09-17T01:08:29.944Z,0.00
2022-09-17T01:09:29.908Z,0.00
2022-09-17T01:10:29.856Z,0.00
2022-09-17T01:11:29.844Z,0.00
2022-09-17T01:12:29.794Z,0.00
2022-09-17T01:13:29.735Z,0.00
2022-09-17T01:14:29.711Z,0.00
2022-09-17T01:15:29.639Z,0.00
2022-09-17T01:16:29.652Z,0.00
2022-09-17T01:17:29.558Z,0.00
2022-09-17T01:18:29.505Z,0.00
2022-09-17T01:19:29.466Z,0.00
2022-09-17T01:20:29.437Z,0.00
2022-09-17T01:21:29.379Z,0.00
2022-09-17T01:22:29.336Z,0.00
2022-09-17T01:23:29.291Z,0.00
2022-09-17T01:24:29.271Z,0.00
2022-09-17T01:25:29.206Z,0.00
2022-09-17T01:26:29.161Z,0.00
2022-09-17T01:27:29.118Z,0.00
2022-09-17T01:28:29.076Z,0.00
2022-09-17T01:29:29.039Z,0.00
2022-09-17T01:30:28.988Z,0.00
2022-09-17T01:31:29.008Z,0.00
2022-09-17T01:32:28.903Z,0.00
2022-09-17T01:33:28.880Z,0.00
2022-09-17T01:34:28.845Z,0.00
2022-09-17T01:35:28.770Z,0.00
2022-09-17T01:36:28.726Z,0.00
2022-09-17T01:37:30.712Z,0.00
2022-09-17T01:38:28.812Z,0.00
2022-09-17T01:39:28.601Z,0.00
2022-09-17T01:40:28.611Z,0.00
2022-09-17T01:41:28.509Z,0.00
2022-09-17T01:42:28.463Z,0.00
2022-09-17T01:43:28.422Z,0.00
2022-09-17T01:44:28.403Z,0.00
2022-09-17T01:45:28.338Z,0.00
2022-09-17T01:46:28.346Z,0.00
2022-09-17T01:47:28.248Z,0.00
2022-09-17T01:48:28.202Z,0.00
2022-09-17T01:49:28.164Z,0.00
2022-09-17T01:50:28.128Z,0.00
2022-09-17T01:51:28.074Z,0.00
2022-09-17T01:52:28.029Z,0.00
2022-09-17T01:53:28.020Z,0.00
2022-09-17T01:54:27.944Z,0.00
2022-09-17T01:55:27.898Z,0.00
2022-09-17T01:56:27.862Z,0.00
2022-09-17T01:57:27.811Z,0.00
2022-09-17T01:58:27.764Z,0.00
2022-09-17T01:59:27.745Z,0.00
2022-09-17T02:00:27.683Z,0.00
2022-09-17T02:01:27.657Z,0.00
2022-09-17T02:02:27.664Z,0.00
2022-09-17T02:03:27.550Z,0.00
2022-09-17T02:04:27.506Z,0.00
2022-09-17T02:05:27.962Z,0.00
2022-09-17T02:06:27.434Z,0.00
2022-09-17T02:07:27.382Z,0.00
2022-09-17T02:08:27.333Z,0.00
2022-09-17T02:09:27.299Z,0.00
2022-09-17T02:10:27.249Z,0.00
2022-09-17T02:11:27.228Z,0.00
2022-09-17T02:12:27.164Z,0.00
2022-09-17T02:13:27.115Z,0.00
2022-09-17T02:14:27.085Z,0.00
2022-09-17T02:15:27.032Z,0.00
2022-09-17T02:16:27.085Z,0.00
2022-09-17T02:17:26.967Z,0.00
2022-09-17T02:18:26.910Z,0.00
2022-09-17T02:19:26.866Z,0.00
2022-09-17T02:20:26.816Z,0.00
2022-09-17T02:21:26.784Z,0.00
2022-09-17T02:22:26.731Z,0.00
2022-09-17T02:23:26.686Z,0.00
2022-09-17T02:24:26.641Z,0.00
2022-09-17T02:25:26.605Z,0.00
2022-09-17T02:26:26.556Z,0.00
2022-09-17T02:27:26.534Z,0.00
2022-09-17T02:28:26.538Z,0.00
2022-09-17T02:29:26.431Z,0.00
2022-09-17T02:30:26.378Z,0.00
2022-09-17T02:31:26.396Z,0.00
2022-09-17T02:32:26.289Z,0.00
2022-09-17T02:33:26.245Z,0.00
2022-09-17T02:34:26.310Z,0.00
2022-09-17T02:35:26.156Z,0.00
2022-09-17T02:36:26.116Z,0.00
2022-09-17T02:37:26.069Z,0.00
2022-09-17T02:38:26.029Z,0.00
2022-09-17T02:39:25.992Z,0.00
2022-09-17T02:40:26.029Z,0.00
2022-09-17T02:41:25.896Z,0.00
2022-09-17T02:42:25.853Z,0.00
2022-09-17T02:43:25.807Z,0.00
2022-09-17T02:44:25.785Z,0.00
2022-09-17T02:45:25.717Z,0.00
2022-09-17T02:46:25.729Z,0.00
2022-09-17T02:47:25.630Z,0.00
2022-09-17T02:48:25.595Z,0.00
2022-09-17T02:49:25.544Z,0.00
2022-09-17T02:50:25.515Z,0.00
2022-09-17T02:51:25.464Z,0.00
2022-09-17T02:52:25.416Z,0.00
2022-09-17T02:53:25.371Z,0.00
2022-09-17T02:54:25.324Z,0.00
2022-09-17T02:55:25.280Z,0.00
2022-09-17T02:56:25.300Z,0.00
2022-09-17T02:57:25.194Z,0.00
2022-09-17T02:58:25.155Z,0.00
2022-09-17T02:59:25.104Z,0.00
2022-09-17T03:00:25.062Z,0.00
2022-09-17T03:01:25.064Z,0.00
2022-09-17T03:02:25.040Z,0.00
2022-09-17T03:03:24.932Z,0.00
2022-09-17T03:04:24.888Z,0.00
2022-09-17T03:05:24.842Z,0.00
2022-09-17T03:06:24.802Z,0.00
2022-09-17T03:07:24.767Z,0.00
2022-09-17T03:08:24.729Z,0.00
2022-09-17T03:09:24.667Z,0.00
2022-09-17T03:10:24.626Z,0.00
2022-09-17T03:11:24.581Z,0.00
2022-09-17T03:12:24.538Z,0.00
2022-09-17T03:13:24.527Z,0.00
2022-09-17T03:14:24.451Z,0.00
2022-09-17T03:15:24.405Z,0.00
2022-09-17T03:16:24.433Z,0.00
2022-09-17T03:17:24.316Z,0.00
2022-09-17T03:18:24.274Z,0.00
2022-09-17T03:19:24.241Z,0.00
2022-09-17T03:20:24.298Z,0.00
2022-09-17T03:21:24.145Z,0.00
2022-09-17T03:22:24.099Z,0.00
2022-09-17T03:23:24.055Z,0.00
2022-09-17T03:24:24.011Z,0.00
2022-09-17T03:25:23.964Z,0.00
2022-09-17T03:26:23.960Z,0.00
2022-09-17T03:27:23.879Z,0.00
2022-09-17T03:28:23.831Z,0.00
2022-09-17T03:29:23.791Z,0.00
2022-09-17T03:30:23.746Z,0.00
2022-09-17T03:31:23.731Z,0.00
2022-09-17T03:32:23.678Z,0.00
2022-09-17T03:33:23.636Z,0.00
2022-09-17T03:34:23.570Z,0.00
2022-09-17T03:35:23.520Z,0.00
2022-09-17T03:36:23.478Z,0.00
2022-09-17T03:37:23.435Z,0.00
2022-09-17T03:38:23.418Z,0.00
2022-09-17T03:39:23.354Z,0.00
2022-09-17T03:40:23.330Z,0.00
2022-09-17T03:41:23.261Z,0.00
2022-09-17T03:42:23.219Z,0.00
2022-09-17T03:43:23.173Z,0.00
2022-09-17T03:44:23.161Z,0.00
2022-09-17T03:45:23.079Z,0.00
2022-09-17T03:46:23.059Z,0.00
2022-09-17T03:47:23.011Z,0.00
2022-09-17T03:48:22.947Z,0.00
2022-09-17T03:49:22.905Z,0.00
2022-09-17T03:50:22.971Z,0.00
2022-09-17T03:51:22.814Z,0.00
2022-09-17T03:52:22.774Z,0.00
2022-09-17T03:53:22.724Z,0.00
2022-09-17T03:54:22.682Z,0.00
2022-09-17T03:55:22.666Z,0.00
2022-09-17T03:56:22.593Z,0.00
2022-09-17T03:57:22.552Z,0.00
2022-09-17T03:58:22.511Z,0.00
2022-09-17T03:59:22.485Z,0.00
2022-09-17T04:00:22.444Z,0.00
2022-09-17T04:01:22.441Z,0.00
2022-09-17T04:02:22.416Z,0.00
2022-09-17T04:03:22.283Z,0.00
2022-09-17T04:04:22.235Z,0.00
2022-09-17T04:05:22.191Z,0.00
2022-09-17T04:06:22.173Z,0.00
2022-09-17T04:07:22.100Z,0.00
2022-09-17T04:08:22.063Z,0.00
2022-09-17T04:09:22.035Z,0.00
2022-09-17T04:10:21.970Z,0.00
2022-09-17T04:11:21.922Z,0.00
2022-09-17T04:12:21.905Z,0.00
2022-09-17T04:13:21.841Z,0.00
2022-09-17T04:14:21.793Z,0.00
2022-09-17T04:15:21.764Z,0.00
2022-09-17T04:16:21.771Z,0.00
2022-09-17T04:17:21.657Z,0.00
2022-09-17T04:18:21.617Z,0.00
2022-09-17T04:19:21.573Z,0.00
2022-09-17T04:20:21.525Z,0.00
2022-09-17T04:21:21.524Z,0.00
2022-09-17T04:22:21.436Z,0.00
2022-09-17T04:23:21.392Z,0.00
2022-09-17T04:24:21.346Z,0.00
2022-09-17T04:25:21.299Z,0.00
2022-09-17T04:26:21.261Z,0.00
2022-09-17T04:27:21.238Z,0.00
2022-09-17T04:28:21.173Z,0.00
2022-09-17T04:29:21.122Z,0.00
2022-09-17T04:30:21.079Z,0.00
2022-09-17T04:31:21.146Z,0.00
2022-09-17T04:32:20.991Z,0.00
2022-09-17T04:33:20.942Z,0.00
2022-09-17T04:34:20.900Z,0.00
2022-09-17T04:35:20.855Z,0.00
2022-09-17T04:36:20.828Z,0.00
2022-09-17T04:37:20.766Z,0.00
2022-09-17T04:38:20.722Z,0.00
2022-09-17T04:39:20.678Z,0.00
2022-09-17T04:40:20.699Z,0.00
2022-09-17T04:41:20.590Z,0.00
2022-09-17T04:42:20.568Z,0.00
2022-09-17T04:43:20.501Z,0.00
2022-09-17T04:44:20.454Z,0.00
2022-09-17T04:45:20.414Z,0.00
2022-09-17T04:46:20.410Z,0.00
2022-09-17T04:47:20.317Z,0.00
2022-09-17T04:48:20.291Z,0.00
2022-09-17T04:49:20.238Z,0.00
2022-09-17T04:50:20.194Z,0.00
2022-09-17T04:51:20.141Z,0.00
2022-09-17T04:52:20.098Z,0.00
2022-09-17T04:53:20.055Z,0.00
2022-09-17T04:54:20.019Z,0.00
2022-09-17T04:55:19.967Z,0.00
2022-09-17T04:56:19.921Z,0.00
2022-09-17T04:57:19.888Z,0.00
2022-09-17T04:58:19.833Z,0.00
2022-09-17T04:59:19.785Z,5.63
2022-09-17T05:00:19.740Z,5.63
2022-09-17T05:01:19.746Z,5.63
2022-09-17T05:02:19.665Z,5.63
2022-09-17T05:03:19.616Z,5.63
2022-09-17T05:04:19.577Z,11.25
2022-09-17T05:05:19.515Z,11.25
2022-09-17T05:06:19.471Z,11.25
2022-09-17T05:07:19.428Z,11.25
2022-09-17T05:08:19.386Z,16.88
2022-09-17T05:09:19.341Z,16.88
2022-09-17T05:10:19.321Z,16.88
2022-09-17T05:11:19.262Z,16.88
2022-09-17T05:12:19.205Z,16.88
2022-09-17T05:13:19.164Z,16.88
2022-09-17T05:14:19.115Z,16.88
2022-09-17T05:15:19.073Z,16.88
2022-09-17T05:16:19.094Z,16.88
2022-09-17T05:17:18.982Z,22.50
2022-09-17T05:18:18.938Z,22.50
2022-09-17T05:19:18.887Z,22.50
2022-09-17T05:20:18.849Z,22.50
2022-09-17T05:21:18.803Z,28.13
2022-09-17T05:22:21.498Z,28.13
2022-09-17T05:23:18.735Z,28.13
2022-09-17T05:24:18.669Z,28.13
2022-09-17T05:25:18.634Z,28.13
2022-09-17T05:26:18.602Z,33.75
2022-09-17T05:27:18.537Z,33.75
2022-09-17T05:28:18.512Z,39.38
2022-09-17T05:29:18.442Z,39.38
2022-09-17T05:30:18.398Z,39.38
2022-09-17T05:31:18.388Z,39.38
2022-09-17T05:32:18.331Z,39.38
2022-09-17T05:33:18.268Z,45.00
2022-09-17T05:34:18.226Z,45.00
2022-09-17T05:35:18.174Z,50.63
2022-09-17T05:36:18.255Z,50.63
2022-09-17T05:37:18.084Z,56.25
2022-09-17T05:38:18.040Z,61.88
2022-09-17T05:39:18.009Z,61.88
2022-09-17T05:40:18.009Z,61.88
2022-09-17T05:41:17.906Z,67.50
2022-09-17T05:42:17.889Z,73.13
2022-09-17T05:43:17.845Z,84.38
2022-09-17T05:44:18.209Z,101.25
2022-09-17T05:45:17.725Z,118.13
2022-09-17T05:46:17.723Z,151.88
2022-09-17T05:47:17.639Z,191.25
2022-09-17T05:48:17.602Z,230.63
2022-09-17T05:49:17.566Z,258.75
2022-09-17T05:50:17.509Z,258.75
2022-09-17T05:51:17.462Z,253.13
2022-09-17T05:52:17.421Z,230.63
2022-09-17T05:53:17.371Z,225.00
2022-09-17T05:54:17.335Z,225.00
2022-09-17T05:55:17.311Z,230.63
2022-09-17T05:56:17.266Z,230.63
2022-09-17T05:57:17.203Z,230.63
2022-09-17T05:58:17.170Z,241.88
2022-09-17T05:59:17.106Z,258.75
2022-09-17T06:03:48.566Z,225.00
2022-09-17T06:04:48.834Z,230.63
2022-09-17T06:05:48.412Z,225.00
2022-09-17T06:06:48.267Z,208.13
2022-09-17T06:07:48.520Z,196.88
2022-09-17T06:08:48.178Z,191.25
2022-09-17T06:09:48.484Z,196.88
2022-09-17T06:10:48.109Z,213.75
2022-09-17T06:11:48.091Z,225.00
2022-09-17T06:12:48.030Z,236.25
2022-09-17T06:13:48.241Z,253.13
2022-09-17T06:14:47.920Z,253.13
2022-09-17T06:15:48.155Z,241.88
2022-09-17T06:16:48.839Z,213.75
2022-09-17T06:17:48.024Z,185.63
2022-09-17T06:18:47.753Z,168.75
2022-09-17T06:19:47.864Z,163.13
2022-09-17T06:20:47.665Z,168.75
2022-09-17T06:21:47.881Z,174.38
2022-09-17T06:22:47.591Z,185.63
2022-09-17T06:23:47.657Z,191.25
2022-09-17T06:24:47.684Z,196.88
2022-09-17T06:25:47.795Z,208.13
2022-09-17T06:26:47.507Z,219.38
2022-09-17T06:27:47.331Z,236.25
2022-09-17T06:28:47.720Z,253.13
2022-09-17T06:29:47.275Z,275.63
2022-09-17T06:30:47.390Z,298.13
2022-09-17T06:31:47.204Z,309.38
2022-09-17T06:32:47.173Z,320.63
2022-09-17T06:33:47.344Z,331.88
2022-09-17T06:34:47.237Z,337.50
2022-09-17T06:35:47.165Z,348.75
2022-09-17T06:36:46.952Z,360.00
2022-09-17T06:38:09.106Z,365.63
2022-09-17T06:38:52.469Z,382.50
2022-09-17T06:39:54.440Z,399.38
2022-09-17T06:40:46.752Z,421.88
2022-09-17T06:41:46.706Z,438.75
2022-09-17T06:42:46.667Z,461.25
2022-09-17T06:43:46.618Z,472.50
2022-09-17T06:44:46.574Z,478.13
2022-09-17T06:45:46.552Z,489.38
2022-09-17T06:46:46.547Z,489.38
2022-09-17T06:47:46.445Z,483.75
2022-09-17T06:48:46.404Z,472.50
2022-09-17T06:49:46.360Z,466.88
2022-09-17T06:50:46.312Z,455.63
2022-09-17T06:51:46.378Z,438.75
2022-09-17T06:52:46.224Z,421.88
2022-09-17T06:53:46.242Z,388.13
2022-09-17T06:54:46.141Z,343.13
2022-09-17T06:55:46.095Z,303.75
2022-09-17T06:56:46.051Z,275.63
2022-09-17T06:57:46.028Z,253.13
2022-09-17T06:58:45.963Z,219.38
2022-09-17T06:59:45.922Z,202.50
2022-09-17T07:00:45.918Z,196.88
2022-09-17T07:01:45.857Z,185.63
2022-09-17T07:02:45.817Z,185.63
2022-09-17T07:03:45.789Z,196.88
2022-09-17T07:04:45.702Z,219.38
2022-09-17T07:05:45.656Z,264.38
2022-09-17T07:06:45.618Z,303.75
2022-09-17T07:07:45.570Z,331.88
2022-09-17T07:08:45.525Z,348.75
2022-09-17T07:09:45.504Z,376.88
2022-09-17T07:10:45.467Z,421.88
2022-09-17T07:11:45.402Z,472.50
2022-09-17T07:12:49.720Z,523.13
2022-09-17T07:13:45.427Z,545.63
2022-09-17T07:14:45.259Z,556.88
2022-09-17T07:15:45.258Z,540.00
2022-09-17T07:16:45.187Z,528.75
2022-09-17T07:17:45.133Z,540.00
2022-09-17T07:18:45.089Z,590.63
2022-09-17T07:19:45.072Z,669.38
2022-09-17T07:20:45.001Z,720.00
2022-09-17T07:21:44.961Z,720.00
2022-09-17T07:22:44.913Z,714.38
2022-09-17T07:23:44.874Z,731.25
2022-09-17T07:24:44.825Z,697.50
2022-09-17T07:25:44.800Z,658.13
2022-09-17T07:26:44.740Z,618.75
2022-09-17T07:27:44.697Z,596.25
2022-09-17T07:28:44.659Z,568.13
2022-09-17T07:29:44.610Z,551.25
2022-09-17T07:30:44.591Z,545.63
2022-09-17T07:31:44.603Z,556.88
2022-09-17T07:32:44.480Z,601.88
2022-09-17T07:33:44.438Z,669.38
2022-09-17T07:34:44.391Z,725.63
2022-09-17T07:35:44.353Z,753.75
2022-09-17T07:36:44.330Z,787.50
2022-09-17T07:37:44.267Z,832.50
2022-09-17T07:38:44.220Z,871.88
2022-09-17T07:39:44.187Z,866.25
2022-09-17T07:40:44.138Z,826.88
2022-09-17T07:41:44.094Z,815.63
2022-09-17T07:42:44.077Z,804.38
2022-09-17T07:43:44.007Z,770.63
2022-09-17T07:44:43.967Z,731.25
2022-09-17T07:45:43.923Z,680.63
2022-09-17T07:46:43.938Z,652.50
2022-09-17T07:47:43.839Z,630.00
2022-09-17T07:48:43.821Z,607.50
2022-09-17T07:49:43.753Z,601.88
2022-09-17T07:50:43.715Z,613.13
2022-09-17T07:51:43.670Z,646.88
2022-09-17T07:52:43.626Z,691.88
2022-09-17T07:53:43.581Z,742.50
2022-09-17T07:54:43.577Z,798.75
2022-09-17T07:55:43.495Z,855.00
2022-09-17T07:56:43.456Z,877.50
2022-09-17T07:57:43.412Z,905.63
2022-09-17T07:58:43.375Z,956.25
2022-09-17T07:59:43.327Z,995.63
2022-09-17T08:00:43.429Z,1012.50
2022-09-17T08:01:43.353Z,956.25
2022-09-17T08:02:43.315Z,939.38
2022-09-17T08:03:43.156Z,945.00
2022-09-17T08:04:43.114Z,928.13
2022-09-17T08:05:43.101Z,939.38
2022-09-17T08:06:43.112Z,990.00
2022-09-17T08:07:43.012Z,1040.63
2022-09-17T08:08:42.973Z,1063.13
2022-09-17T08:09:42.901Z,1085.63
2022-09-17T08:10:42.863Z,1130.63
2022-09-17T08:11:55.668Z,1119.38
2022-09-17T08:12:42.775Z,1102.50
2022-09-17T08:13:42.760Z,1096.88
2022-09-17T08:14:42.694Z,1108.13
2022-09-17T08:15:42.667Z,1130.63
2022-09-17T08:16:42.614Z,1108.13
2022-09-17T08:17:42.565Z,1063.13
2022-09-17T08:18:42.537Z,1035.00
2022-09-17T08:19:42.481Z,995.63
2022-09-17T08:20:42.462Z,978.75
2022-09-17T08:21:42.397Z,945.00
2022-09-17T08:22:43.365Z,905.63
2022-09-17T08:23:42.313Z,866.25
2022-09-17T08:24:42.273Z,826.88
2022-09-17T08:25:42.228Z,753.75
2022-09-17T08:26:42.211Z,691.88
2022-09-17T08:27:42.183Z,646.88
2022-09-17T08:28:42.111Z,624.38
2022-09-17T08:29:42.061Z,618.75
2022-09-17T08:30:42.021Z,607.50
2022-09-17T08:31:42.003Z,618.75
2022-09-17T08:32:41.935Z,545.63
2022-09-17T08:33:41.910Z,585.00
2022-09-17T08:34:41.849Z,675.00
2022-09-17T08:35:41.806Z,765.00
2022-09-17T08:36:41.764Z,720.00
2022-09-17T08:37:41.719Z,703.13
2022-09-17T08:38:41.681Z,1676.25
2022-09-17T08:39:41.660Z,2992.50
2022-09-17T08:40:41.595Z,3408.75
2022-09-17T08:41:41.550Z,1659.38
2022-09-17T08:42:41.510Z,1355.63
2022-09-17T08:43:41.467Z,590.63
2022-09-17T08:44:41.426Z,528.75
2022-09-17T08:45:41.413Z,562.50
2022-09-17T08:46:41.370Z,675.00
2022-09-17T08:47:41.298Z,978.75
2022-09-17T08:48:41.258Z,1333.13
2022-09-17T08:49:41.217Z,1496.25
2022-09-17T08:50:42.047Z,1125.00
2022-09-17T08:51:41.158Z,1029.38
2022-09-17T08:52:41.090Z,905.63
2022-09-17T08:53:41.044Z,798.75
2022-09-17T08:54:41.009Z,736.88
2022-09-17T08:55:40.963Z,708.75
2022-09-17T08:56:40.923Z,725.63
2022-09-17T08:57:40.894Z,793.13
2022-09-17T08:58:40.836Z,838.13
2022-09-17T08:59:40.795Z,832.50
2022-09-17T09:00:40.754Z,1051.88
2022-09-17T09:01:40.890Z,1800.00
2022-09-17T09:02:40.805Z,1299.38
2022-09-17T09:03:40.744Z,1608.75
2022-09-17T09:04:40.575Z,1546.88
2022-09-17T09:05:40.541Z,1850.63
2022-09-17T09:06:40.496Z,1518.75
2022-09-17T09:07:40.453Z,1608.75
2022-09-17T09:08:40.409Z,2424.38
2022-09-17T09:09:40.384Z,2857.50
2022-09-17T09:10:40.331Z,1276.88
2022-09-17T09:11:40.284Z,1130.63
2022-09-17T09:12:40.246Z,911.25
2022-09-17T09:13:40.199Z,810.00
2022-09-17T09:14:40.160Z,776.25
2022-09-17T09:15:40.134Z,770.63
2022-09-17T09:16:40.078Z,770.63
2022-09-17T09:17:40.046Z,787.50
2022-09-17T09:18:40.000Z,753.75
2022-09-17T09:19:39.950Z,725.63
2022-09-17T09:20:39.930Z,697.50
2022-09-17T09:21:39.872Z,748.13
2022-09-17T09:22:39.837Z,843.75
2022-09-17T09:23:39.784Z,990.00
2022-09-17T09:24:39.748Z,2053.13
2022-09-17T09:25:39.718Z,1006.88
2022-09-17T09:26:39.662Z,2683.13
2022-09-17T09:27:39.618Z,4111.88
2022-09-17T09:28:39.576Z,4038.75
2022-09-17T09:29:39.539Z,2238.75
2022-09-17T09:30:39.490Z,2430.00
2022-09-17T09:31:39.505Z,5535.00
2022-09-17T09:32:39.412Z,3808.13
2022-09-17T09:33:39.369Z,3943.13
2022-09-17T09:34:39.338Z,2182.50
2022-09-17T09:35:39.294Z,1968.75
2022-09-17T09:36:39.276Z,2317.50
2022-09-17T09:37:39.210Z,2812.50
2022-09-17T09:38:39.172Z,1569.38
2022-09-17T09:39:43.785Z,1501.88
2022-09-17T09:40:39.162Z,1490.63
2022-09-17T09:41:39.053Z,5861.25
2022-09-17T09:42:39.029Z,1811.25
2022-09-17T09:44:02.136Z,1546.88
2022-09-17T09:44:38.938Z,1546.88
2022-09-17T09:45:38.899Z,1783.13
2022-09-17T09:46:39.037Z,2255.63
2022-09-17T09:47:38.817Z,1726.88
2022-09-17T09:48:38.820Z,1738.13
2022-09-17T09:49:38.739Z,1440.00
2022-09-17T09:51:01.803Z,1378.13
2022-09-17T09:51:38.666Z,1366.88
2022-09-17T09:52:38.621Z,1333.13
2022-09-17T09:53:38.586Z,1299.38
2022-09-17T09:54:38.584Z,1215.00
2022-09-17T09:55:38.504Z,1096.88
2022-09-17T09:56:38.460Z,984.38
2022-09-17T09:57:38.425Z,900.00
2022-09-17T09:58:38.383Z,838.13
2022-09-17T09:59:38.347Z,798.75
2022-09-17T10:00:38.320Z,776.25
2022-09-17T10:01:38.365Z,753.75
2022-09-17T10:02:38.306Z,804.38
2022-09-17T10:03:38.185Z,888.75
2022-09-17T10:04:38.147Z,939.38
2022-09-17T10:05:38.105Z,978.75
2022-09-17T10:06:38.064Z,995.63
2022-09-17T10:07:38.049Z,990.00
2022-09-17T10:08:37.984Z,978.75
2022-09-17T10:09:37.942Z,961.88
2022-09-17T10:10:37.898Z,950.63
2022-09-17T10:11:37.862Z,939.38
2022-09-17T10:12:37.818Z,905.63
2022-09-17T10:13:37.809Z,871.88
2022-09-17T10:14:37.737Z,860.63
2022-09-17T10:15:37.693Z,860.63
2022-09-17T10:16:37.704Z,843.75
2022-09-17T10:17:37.610Z,793.13
2022-09-17T10:18:37.574Z,725.63
2022-09-17T10:19:37.549Z,663.75
2022-09-17T10:20:37.492Z,635.63
2022-09-17T10:21:37.447Z,607.50
2022-09-17T10:22:37.409Z,613.13
2022-09-17T10:23:37.370Z,646.88
2022-09-17T10:24:37.350Z,686.25
2022-09-17T10:25:37.299Z,703.13
2022-09-17T10:26:37.246Z,720.00
2022-09-17T10:27:37.204Z,731.25
2022-09-17T10:28:37.224Z,731.25
2022-09-17T10:29:37.118Z,731.25
2022-09-17T10:30:37.081Z,736.88
2022-09-17T10:31:37.068Z,759.38
2022-09-17T10:32:36.994Z,765.00
2022-09-17T10:33:36.947Z,781.88
2022-09-17T10:34:36.907Z,798.75
2022-09-17T10:35:36.906Z,798.75
2022-09-17T10:36:38.054Z,793.13
2022-09-17T10:37:36.795Z,793.13
2022-09-17T10:38:36.742Z,798.75
2022-09-17T10:39:36.747Z,798.75
2022-09-17T10:40:36.741Z,793.13
2022-09-17T10:41:36.632Z,770.63
2022-09-17T10:42:36.584Z,731.25
2022-09-17T10:43:36.555Z,708.75
2022-09-17T10:44:36.491Z,680.63
2022-09-17T10:45:36.448Z,675.00
2022-09-17T10:46:36.420Z,691.88
2022-09-17T10:47:36.367Z,742.50
2022-09-17T10:48:36.337Z,781.88
2022-09-17T10:49:36.310Z,832.50
2022-09-17T10:50:36.244Z,883.13
2022-09-17T10:51:36.233Z,928.13
2022-09-17T10:52:36.192Z,995.63
2022-09-17T10:53:36.162Z,1057.50
2022-09-17T10:54:36.097Z,1136.25
2022-09-17T10:55:36.138Z,1186.88
2022-09-17T10:56:35.989Z,1248.75
2022-09-17T10:57:35.954Z,1299.38
2022-09-17T10:58:40.402Z,1411.88
2022-09-17T10:59:35.868Z,1586.25
2022-09-17T11:00:35.838Z,1760.63
2022-09-17T11:01:35.851Z,1901.25
2022-09-17T11:02:35.873Z,3223.13
2022-09-17T11:03:35.702Z,2407.50
2022-09-17T11:04:35.657Z,2677.50
2022-09-17T11:05:35.620Z,4443.75
2022-09-17T11:06:35.575Z,3043.13
2022-09-17T11:07:35.548Z,5028.75
2022-09-17T11:08:35.495Z,3999.38
2022-09-17T11:09:35.459Z,5810.63
2022-09-17T11:10:35.418Z,4128.75
2022-09-17T11:11:35.375Z,3768.75
2022-09-17T11:12:35.363Z,5591.25
2022-09-17T11:13:35.307Z,5692.50
2022-09-17T11:14:35.265Z,5737.50
2022-09-17T11:15:35.239Z,5377.50
2022-09-17T11:16:35.315Z,5585.63
2022-09-17T11:17:35.151Z,5748.75
2022-09-17T11:18:35.173Z,5146.88
2022-09-17T11:19:35.084Z,4696.88
2022-09-17T11:20:35.042Z,5748.75
2022-09-17T11:21:35.011Z,4899.38
2022-09-17T11:22:34.974Z,3830.63
2022-09-17T11:23:34.942Z,4443.75
2022-09-17T11:24:34.930Z,5197.50
2022-09-17T11:25:34.869Z,5349.38
2022-09-17T11:26:34.835Z,3920.63
2022-09-17T11:27:34.804Z,4342.50
2022-09-17T11:28:34.785Z,5366.25
2022-09-17T11:29:34.736Z,5478.75
2022-09-17T11:30:34.697Z,2446.88
2022-09-17T11:31:34.756Z,5034.38
2022-09-17T11:32:34.632Z,3903.75
2022-09-17T11:33:34.601Z,4657.50
2022-09-17T11:34:34.596Z,5596.88
2022-09-17T11:35:34.535Z,3723.75
2022-09-17T11:36:34.588Z,6249.38
2022-09-17T11:37:34.471Z,6108.75
2022-09-17T11:38:34.445Z,3268.13
2022-09-17T11:39:34.427Z,5889.38
2022-09-17T11:40:34.448Z,6035.63
2022-09-17T11:41:34.337Z,6120.00
2022-09-17T11:42:34.303Z,4674.38
2022-09-17T11:43:34.276Z,3763.13
2022-09-17T11:44:34.257Z,4809.38
2022-09-17T11:45:34.208Z,6721.88
2022-09-17T11:46:34.231Z,3403.13
2022-09-17T11:47:34.148Z,2840.63
2022-09-17T11:48:34.301Z,2446.88
2022-09-17T11:49:34.100Z,2171.25
2022-09-17T11:50:34.053Z,1980.00
2022-09-17T11:51:34.022Z,1828.13
2022-09-17T11:52:33.987Z,1873.13
2022-09-17T11:53:33.955Z,1462.50
2022-09-17T11:54:33.933Z,1147.50
2022-09-17T11:55:33.887Z,961.88
2022-09-17T11:56:33.872Z,838.13
2022-09-17T11:57:33.860Z,776.25
2022-09-17T11:58:33.795Z,781.88
2022-09-17T11:59:33.753Z,821.25
2022-09-17T12:00:33.715Z,905.63
2022-09-17T12:01:33.742Z,1023.75
2022-09-17T12:02:33.722Z,1125.00
2022-09-17T12:03:33.610Z,1209.38
2022-09-17T12:04:33.574Z,1243.13
2022-09-17T12:05:33.535Z,1231.88
2022-09-17T12:06:33.503Z,1192.50
2022-09-17T12:07:33.466Z,1147.50
2022-09-17T12:08:33.502Z,1141.88
2022-09-17T12:09:33.393Z,1108.13
2022-09-17T12:10:33.373Z,1102.50
2022-09-17T12:11:33.321Z,1113.75
2022-09-17T12:12:49.259Z,1130.63
2022-09-17T12:13:33.259Z,1181.25
2022-09-17T12:14:33.228Z,1355.63
2022-09-17T12:15:33.165Z,1406.25
2022-09-17T12:16:33.215Z,1310.63
2022-09-17T12:17:33.083Z,1175.63
2022-09-17T12:18:33.618Z,1006.88
2022-09-17T12:19:33.008Z,916.88
2022-09-17T12:20:33.003Z,849.38
2022-09-17T12:21:32.925Z,810.00
2022-09-17T12:22:35.025Z,826.88
2022-09-17T12:23:32.866Z,888.75
2022-09-17T12:24:32.815Z,945.00
2022-09-17T12:25:32.772Z,961.88
2022-09-17T12:26:32.748Z,961.88
2022-09-17T12:27:32.695Z,945.00
2022-09-17T12:28:32.655Z,939.38
2022-09-17T12:29:32.613Z,1001.25
2022-09-17T12:30:32.568Z,1125.00
2022-09-17T12:31:32.577Z,1288.13
2022-09-17T12:32:32.523Z,1546.88
2022-09-17T12:33:32.452Z,1721.25
2022-09-17T12:34:32.413Z,1800.00
2022-09-17T12:35:59.817Z,1811.25
2022-09-17T12:36:32.328Z,1833.75
2022-09-17T12:37:32.295Z,2390.63
2022-09-17T12:38:32.275Z,1760.63
2022-09-17T12:39:32.212Z,1575.00
2022-09-17T12:40:32.214Z,1485.00
2022-09-17T12:41:32.131Z,1518.75
2022-09-17T12:42:32.093Z,1631.25
2022-09-17T12:43:32.053Z,1715.63
2022-09-17T12:44:32.022Z,1698.75
2022-09-17T12:45:31.972Z,1501.88
2022-09-17T12:46:31.998Z,1305.00